Time;durP1;ratioP1;P1;durP2;ratioP2;P2;SDS_P1;SDS_P2;PMS_P1;PMS_P2;Temp;Humidity;BMP_temperature;BMP_pressure;BME280_temperature;BME280_humidity;BME280_pressure;Samples;Min_cycle;Max_cycle;Signal;HPM_P1;HPM_P2
2022/02/21 00:01:02;;;;;;;7.20;1.20;;;;;;;-146.41;100.00;57768.22;4946772;28;20503;-68
2022/02/21 00:03:30;;;;;;;5.40;1.50;;;;;;;-146.41;100.00;57768.22;4946744;28;20054;-69
2022/02/21 00:05:58;;;;;;;9.40;1.10;;;;;;;-146.41;100.00;57768.22;4945383;28;20090;-68
2022/02/21 00:08:25;;;;;;;10.38;1.80;;;;;;;-146.41;100.00;57768.22;4958572;28;20182;-68
2022/02/21 00:10:52;;;;;;;7.30;1.55;;;;;;;-146.41;100.00;57768.22;4959102;28;20055;-68
2022/02/21 00:13:20;;;;;;;5.43;1.73;;;;;;;-146.41;100.00;57768.22;4954179;28;20059;-68
2022/02/21 00:15:47;;;;;;;10.38;1.40;;;;;;;-146.41;100.00;57768.22;4959240;28;20174;-68
2022/02/21 00:18:14;;;;;;;8.18;1.08;;;;;;;-146.41;100.00;57768.22;4959834;28;20087;-69
2022/02/21 00:20:42;;;;;;;6.55;1.17;;;;;;;-146.41;100.00;57768.22;4946970;28;20146;-68
2022/02/21 00:23:09;;;;;;;6.30;1.08;;;;;;;-146.41;100.00;57768.22;4958161;28;20059;-68
2022/02/21 00:25:36;;;;;;;6.30;1.58;;;;;;;-146.41;100.00;57768.22;4957850;28;20038;-68
2022/02/21 00:28:04;;;;;;;7.78;1.40;;;;;;;-146.41;100.00;57768.22;4959726;28;20058;-68
2022/02/21 00:30:31;;;;;;;6.15;1.00;;;;;;;-146.41;100.00;57768.22;4962317;28;20142;-68
2022/02/21 00:32:59;;;;;;;9.20;1.52;;;;;;;-146.41;100.00;57768.22;4945283;28;20059;-68
2022/02/21 00:35:26;;;;;;;3.30;0.90;;;;;;;-146.41;100.00;57768.22;4959732;28;20425;-68
2022/02/21 00:37:54;;;;;;;7.15;1.27;;;;;;;-146.41;100.00;57768.22;4960256;28;20062;-68
2022/02/21 00:40:22;;;;;;;8.13;1.48;;;;;;;-146.41;100.00;57768.22;4958636;28;20134;-68
2022/02/21 00:42:49;;;;;;;3.33;0.82;;;;;;;-146.41;100.00;57768.22;4959529;28;20126;-68
2022/02/21 00:45:17;;;;;;;5.30;0.98;;;;;;;-146.41;100.00;57768.22;4962021;28;20050;-68
2022/02/21 00:47:44;;;;;;;10.27;1.13;;;;;;;-146.41;100.00;57768.22;4960291;28;20141;-68
2022/02/21 00:50:11;;;;;;;6.82;1.15;;;;;;;-146.41;100.00;57768.22;4959994;28;20478;-68
2022/02/21 00:52:39;;;;;;;6.90;0.93;;;;;;;-146.41;100.00;57768.22;4947690;28;20050;-68
2022/02/21 00:55:07;;;;;;;6.22;1.02;;;;;;;-146.41;100.00;57768.22;4942268;28;20491;-68
2022/02/21 00:57:34;;;;;;;8.00;1.00;;;;;;;-146.41;100.00;57768.22;4958896;28;20047;-68
2022/02/21 01:00:04;;;;;;;11.63;1.80;;;;;;;-146.41;100.00;57768.22;4959075;28;20586;-68
2022/02/21 01:02:36;;;;;;;7.15;0.98;;;;;;;-146.41;100.00;57768.22;4958027;28;20106;-68
2022/02/21 01:05:04;;;;;;;7.25;1.30;;;;;;;-146.41;100.00;57768.22;4961299;28;20054;-68
2022/02/21 01:07:32;;;;;;;8.50;1.17;;;;;;;-146.41;100.00;57768.22;4956990;28;20106;-68
2022/02/21 01:09:59;;;;;;;6.80;0.75;;;;;;;-146.41;100.00;57768.22;4955865;28;20149;-69
2022/02/21 01:12:27;;;;;;;7.18;1.33;;;;;;;-146.41;100.00;57768.22;4958218;28;20070;-69
2022/02/21 01:14:54;;;;;;;6.53;1.00;;;;;;;-146.41;100.00;57768.22;4958190;28;20224;-69
2022/02/21 01:17:22;;;;;;;9.95;1.15;;;;;;;-146.41;100.00;57768.22;4960098;28;20141;-68
2022/02/21 01:19:53;;;;;;;7.53;1.30;;;;;;;-146.41;100.00;57768.22;4956349;28;20176;-69
2022/02/21 01:22:20;;;;;;;4.80;0.70;;;;;;;-146.41;100.00;57768.22;4955796;28;20082;-68
2022/02/21 01:24:47;;;;;;;3.60;0.98;;;;;;;-146.41;100.00;57768.22;4959211;28;20205;-68
2022/02/21 01:27:16;;;;;;;6.13;0.98;;;;;;;-146.41;100.00;57768.22;4957953;28;20074;-69
2022/02/21 01:29:44;;;;;;;4.63;0.73;;;;;;;-146.41;100.00;57768.22;4958869;28;20122;-68
2022/02/21 01:32:11;;;;;;;3.83;0.80;;;;;;;-146.41;100.00;57768.22;4958290;28;20090;-69
2022/02/21 01:34:39;;;;;;;8.98;1.60;;;;;;;-146.41;100.00;57768.22;4952212;28;20051;-69
2022/02/21 01:37:06;;;;;;;3.15;0.80;;;;;;;-146.41;100.00;57768.22;4956325;28;20134;-68
2022/02/21 01:39:34;;;;;;;3.88;0.68;;;;;;;-146.41;100.00;57768.22;4957591;28;20074;-68
2022/02/21 01:42:03;;;;;;;3.97;0.70;;;;;;;-146.41;100.00;57768.22;4956775;28;20141;-69
2022/02/21 01:44:44;;;;;;;4.03;0.68;;;;;;;-146.41;100.00;57768.22;4957275;28;20059;-69
2022/02/21 01:47:14;;;;;;;3.58;0.80;;;;;;;-146.41;100.00;57768.22;4958677;28;20059;-69
2022/02/21 01:49:42;;;;;;;3.00;0.40;;;;;;;-146.41;100.00;57768.22;4944236;28;20132;-69
2022/02/21 01:52:11;;;;;;;4.20;0.60;;;;;;;-146.41;100.00;57768.22;4956374;28;20085;-69
2022/02/21 01:54:39;;;;;;;3.78;0.82;;;;;;;-146.41;100.00;57768.22;4956240;28;20162;-69
2022/02/21 01:57:08;;;;;;;5.45;0.70;;;;;;;-146.41;100.00;57768.22;4940362;28;20411;-69
2022/02/21 01:59:37;;;;;;;1.80;0.30;;;;;;;-146.41;100.00;57768.22;4944611;28;20050;-69
2022/02/21 02:02:06;;;;;;;3.15;0.50;;;;;;;-146.41;100.00;57768.22;4955970;28;20140;-69
2022/02/21 02:04:33;;;;;;;9.23;1.00;;;;;;;-146.41;100.00;57768.22;4956297;28;20082;-69
2022/02/21 02:07:03;;;;;;;5.40;0.90;;;;;;;-146.41;100.00;57768.22;4944128;28;20074;-69
2022/02/21 02:09:30;;;;;;;5.38;0.43;;;;;;;-146.41;100.00;57768.22;4955726;28;20105;-69
2022/02/21 02:11:58;;;;;;;6.60;0.90;;;;;;;-146.41;100.00;57768.22;4954933;28;20149;-69
2022/02/21 02:14:32;;;;;;;6.35;0.73;;;;;;;-146.41;100.00;57768.22;4958660;28;20141;-69
2022/02/21 02:17:07;;;;;;;7.65;0.73;;;;;;;-146.41;100.00;57768.22;4961374;28;20328;-69
2022/02/21 02:19:35;;;;;;;7.55;0.70;;;;;;;-146.41;100.00;57768.22;4957872;28;20141;-69
2022/02/21 02:22:11;;;;;;;6.00;0.70;;;;;;;-146.41;100.00;57768.22;4958227;28;20050;-69
2022/02/21 02:24:41;;;;;;;6.13;0.80;;;;;;;-146.41;100.00;57768.22;4957722;28;20218;-68
2022/02/21 02:27:09;;;;;;;11.68;1.60;;;;;;;-146.41;100.00;57768.22;4957955;28;20464;-68
2022/02/21 02:29:41;;;;;;;9.63;1.27;;;;;;;-146.41;100.00;57768.22;4956820;28;20058;-68
2022/02/21 02:32:09;;;;;;;7.30;1.10;;;;;;;-146.41;100.00;57768.22;4959913;28;20138;-69
2022/02/21 02:34:45;;;;;;;8.32;1.35;;;;;;;-146.41;100.00;57768.22;4961838;28;20074;-68
2022/02/21 02:37:12;;;;;;;11.00;1.15;;;;;;;-146.41;100.00;57768.22;4959193;28;20078;-68
2022/02/21 02:39:41;;;;;;;7.05;1.30;;;;;;;-146.41;100.00;57768.22;4959288;28;20082;-68
2022/02/21 02:42:09;;;;;;;7.60;0.98;;;;;;;-146.41;100.00;57768.22;4957727;28;20051;-69
2022/02/21 02:44:37;;;;;;;13.38;1.42;;;;;;;-146.41;100.00;57768.22;4959521;28;20208;-68
2022/02/21 02:47:06;;;;;;;14.50;1.25;;;;;;;-146.41;100.00;57768.22;4960959;28;20125;-68
2022/02/21 02:49:34;;;;;;;8.68;1.13;;;;;;;-146.41;100.00;57768.22;4960575;28;20186;-68
2022/02/21 02:52:02;;;;;;;11.23;1.20;;;;;;;-146.41;100.00;57768.22;4956394;28;20158;-68
2022/02/21 02:54:29;;;;;;;9.75;1.52;;;;;;;-146.41;100.00;57768.22;4943957;28;20593;-68
2022/02/21 02:56:57;;;;;;;12.38;1.60;;;;;;;-146.41;100.00;57768.22;4961771;28;20058;-68
2022/02/21 02:59:25;;;;;;;17.48;2.08;;;;;;;-146.41;100.00;57768.22;4961431;28;20138;-68
2022/02/21 03:01:54;;;;;;;7.57;0.90;;;;;;;-146.41;100.00;57768.22;4957063;28;20055;-68
2022/02/21 03:04:21;;;;;;;8.45;1.50;;;;;;;-146.41;100.00;57768.22;4960095;28;20449;-68
2022/02/21 03:06:49;;;;;;;7.10;1.15;;;;;;;-146.41;100.00;57768.22;4956705;28;20054;-68
2022/02/21 03:09:17;;;;;;;11.18;1.35;;;;;;;-146.41;100.00;57768.22;4960897;28;20055;-68
2022/02/21 03:11:45;;;;;;;6.90;0.80;;;;;;;-146.41;100.00;57768.22;4958166;28;20605;-69
2022/02/21 03:14:12;;;;;;;8.70;1.30;;;;;;;-146.41;100.00;57768.22;4961088;28;20146;-68
2022/02/21 03:16:40;;;;;;;7.13;0.98;;;;;;;-146.41;100.00;57768.22;4958467;28;20074;-68
2022/02/21 03:19:07;;;;;;;12.88;2.08;;;;;;;-146.41;100.00;57768.22;4961094;28;20134;-68
2022/02/21 03:21:35;;;;;;;7.47;1.20;;;;;;;-146.41;100.00;57768.22;4961646;28;20133;-68
2022/02/21 03:24:02;;;;;;;11.95;1.35;;;;;;;-146.41;100.00;57768.22;4962940;28;20192;-68
2022/02/21 03:26:39;;;;;;;8.00;1.08;;;;;;;-146.41;100.00;57768.22;4958735;28;20524;-68
2022/02/21 03:29:09;;;;;;;8.05;1.77;;;;;;;-146.41;100.00;57768.22;4963553;28;20149;-68
2022/02/21 03:31:50;;;;;;;8.60;1.02;;;;;;;-146.41;100.00;57768.22;4963721;28;20081;-68
2022/02/21 03:34:18;;;;;;;12.48;1.30;;;;;;;-146.41;100.00;57768.22;4961560;28;20047;-68
2022/02/21 03:36:48;;;;;;;9.25;1.10;;;;;;;-146.41;100.00;57768.22;4960828;28;20625;-68
2022/02/21 03:39:15;;;;;;;14.23;1.45;;;;;;;-146.41;100.00;57768.22;4960062;28;20058;-68
2022/02/21 03:41:42;;;;;;;10.48;1.58;;;;;;;-146.41;100.00;57768.22;4958130;28;20476;-68
2022/02/21 03:44:10;;;;;;;9.60;1.25;;;;;;;-146.41;100.00;57768.22;4958493;28;20496;-68
2022/02/21 03:46:41;;;;;;;12.82;0.93;;;;;;;-146.41;100.00;57768.22;4956489;28;20047;-68
2022/02/21 03:49:09;;;;;;;9.65;1.75;;;;;;;-146.41;100.00;57768.22;4957126;28;20058;-68
2022/02/21 03:51:38;;;;;;;6.82;1.38;;;;;;;-146.41;100.00;57768.22;4956905;28;20099;-68
2022/02/21 03:54:07;;;;;;;9.75;1.08;;;;;;;-146.41;100.00;57768.22;4959345;28;20309;-68
2022/02/21 03:56:35;;;;;;;11.20;1.35;;;;;;;-146.41;100.00;57768.22;4961219;28;20178;-68
2022/02/21 03:59:02;;;;;;;8.65;1.00;;;;;;;-146.41;100.00;57768.22;4958025;28;20061;-68
2022/02/21 04:01:30;;;;;;;9.93;1.10;;;;;;;-146.41;100.00;57768.22;4947657;28;20059;-67
2022/02/21 04:03:57;;;;;;;8.73;1.40;;;5.30;99.90;;;-146.41;100.00;57768.22;4943665;28;20072;-67
2022/02/21 04:06:24;;;;;;;10.57;1.35;;;5.30;99.90;;;-146.41;100.00;57768.22;4962327;28;20130;-68
2022/02/21 04:08:50;;;;;;;13.75;1.33;;;5.30;99.90;;;-146.41;100.00;57768.22;4959977;28;20131;-68
2022/02/21 04:11:17;;;;;;;12.68;1.92;;;5.10;99.90;;;-146.41;100.00;57768.22;4961323;28;20130;-68
2022/02/21 04:13:45;;;;;;;10.85;1.23;;;5.00;99.90;;;-146.41;100.00;57768.22;4960788;28;20169;-68
2022/02/21 04:16:12;;;;;;;15.60;1.92;;;5.00;99.90;;;-146.41;100.00;57768.22;4958957;28;20051;-68
2022/02/21 04:18:39;;;;;;;8.88;1.27;;;4.90;99.90;;;-146.41;100.00;57768.22;4960194;28;20129;-68
2022/02/21 04:21:06;;;;;;;10.90;1.20;;;4.90;99.90;;;-146.41;100.00;57768.22;4958874;28;20130;-68
2022/02/21 04:23:33;;;;;;;10.25;1.30;;;4.90;99.90;;;-146.41;100.00;57768.22;4958352;28;20527;-68
2022/02/21 04:26:00;;;;;;;12.02;1.63;;;4.80;99.90;;;-146.41;100.00;57768.22;4960882;28;20066;-68
2022/02/21 04:28:28;;;;;;;17.60;1.95;;;4.70;99.90;;;-146.41;100.00;57768.22;4958857;28;20053;-68
2022/02/21 04:30:56;;;;;;;16.98;1.73;;;4.50;99.90;;;-146.41;100.00;57768.22;4959500;28;20082;-68
2022/02/21 04:33:23;;;;;;;10.70;1.50;;;4.60;99.90;;;-146.41;100.00;57768.22;4959748;28;20079;-68
2022/02/21 04:35:50;;;;;;;11.80;1.60;;;4.60;99.90;;;-146.41;100.00;57768.22;4958630;28;20093;-68
2022/02/21 04:38:16;;;;;;;18.23;1.88;;;4.60;99.90;;;-146.41;100.00;57768.22;4956979;28;20136;-68
2022/02/21 04:40:46;;;;;;;14.60;1.40;;;4.50;99.90;;;-146.41;100.00;57768.22;4956955;28;20062;-67
2022/02/21 04:43:12;;;;;;;22.98;2.53;;;4.40;99.90;;;-146.41;100.00;57768.22;4957593;28;20051;-68
2022/02/21 04:45:39;;;;;;;13.13;1.92;;;4.30;99.90;;;-146.41;100.00;57768.22;4955992;28;20453;-68
2022/02/21 04:48:06;;;;;;;14.68;1.98;;;4.30;99.90;;;-146.41;100.00;57768.22;4955458;28;20150;-68
2022/02/21 04:50:33;;;;;;;14.75;1.83;;;4.30;99.90;;;-146.41;100.00;57768.22;4955754;28;20054;-68
2022/02/21 04:53:00;;;;;;;21.77;2.58;;;4.30;99.90;;;-146.41;100.00;57768.22;4942980;28;20157;-68
2022/02/21 04:55:28;;;;;;;13.98;1.95;;;4.20;99.90;;;-146.41;100.00;57768.22;4960774;28;20169;-68
2022/02/21 04:57:55;;;;;;;18.85;2.83;;;4.20;99.90;;;-146.41;100.00;57768.22;4957183;28;20133;-68
2022/02/21 05:00:22;;;;;;;16.33;2.28;;;4.20;99.90;;;-146.41;100.00;57768.22;4961316;28;20639;-68
2022/02/21 05:02:49;;;;;;;10.13;1.40;;;4.20;99.90;;;-146.41;100.00;57768.22;4957204;28;20091;-67
2022/02/21 05:05:16;;;;;;;13.60;1.80;;;4.10;99.90;;;-146.41;100.00;57768.22;4955961;28;20121;-68
2022/02/21 05:07:43;;;;;;;13.82;2.33;;;4.00;99.90;;;-146.41;100.00;57768.22;4955577;28;20138;-67
2022/02/21 05:10:10;;;;;;;15.50;1.77;;;4.00;99.90;;;-146.41;100.00;57768.22;4959652;28;20061;-68
2022/02/21 05:12:38;;;;;;;18.80;1.67;;;4.00;99.90;;;-146.41;100.00;57768.22;4946295;28;20090;-68
2022/02/21 05:15:07;;;;;;;12.45;1.58;;;3.90;99.90;;;-146.41;100.00;57768.22;4958969;28;20050;-68
2022/02/21 05:17:35;;;;;;;21.48;2.13;;;3.90;99.90;;;-146.41;100.00;57768.22;4959100;28;20169;-68
2022/02/21 05:20:03;;;;;;;10.20;1.77;;;3.90;99.90;;;-146.41;100.00;57768.22;4956565;28;20075;-67
2022/02/21 05:22:30;;;;;;;13.07;1.65;;;4.00;99.90;;;-146.41;100.00;57768.22;4958936;28;20131;-68
2022/02/21 05:24:57;;;;;;;19.10;2.47;;;3.90;99.90;;;-146.41;100.00;57768.22;4957482;28;20057;-67
2022/02/21 05:27:24;;;;;;;19.33;3.15;;;4.00;99.90;;;-146.41;100.00;57768.22;4957095;28;21240;-67
2022/02/21 05:29:51;;;;;;;21.20;2.35;;;4.00;99.90;;;-146.41;100.00;57768.22;4959285;28;20125;-68
2022/02/21 05:32:18;;;;;;;16.17;2.00;;;4.00;99.90;;;-146.41;100.00;57768.22;4956813;28;20078;-68
2022/02/21 05:34:45;;;;;;;23.02;2.90;;;4.00;99.90;;;-146.41;100.00;57768.22;4956089;28;20531;-67
2022/02/21 05:37:12;;;;;;;14.65;2.58;;;3.90;99.90;;;-146.41;100.00;57768.22;4941972;28;20145;-68
2022/02/21 05:39:39;;;;;;;15.23;2.10;;;3.90;99.90;;;-146.41;100.00;57768.22;4959623;28;20484;-68
2022/02/21 05:42:06;;;;;;;18.63;2.70;;;3.90;99.90;;;-146.41;100.00;57768.22;4957122;28;20150;-67
2022/02/21 05:44:33;;;;;;;18.75;2.45;;;3.90;99.90;;;-146.41;100.00;57768.22;4959459;28;20410;-68
2022/02/21 05:47:00;;;;;;;16.73;2.33;;;3.90;99.90;;;-146.41;100.00;57768.22;4957000;28;20054;-67
2022/02/21 05:49:28;;;;;;;18.95;2.75;;;3.90;99.90;;;-146.41;100.00;57768.22;4953892;28;20078;-68
2022/02/21 05:51:55;;;;;;;17.55;2.40;;;4.00;99.90;;;-146.41;100.00;57768.22;4942660;28;20054;-68
2022/02/21 05:54:22;;;;;;;17.08;2.50;;;3.90;99.90;;;-146.41;100.00;57768.22;4960400;28;20451;-68
2022/02/21 05:56:49;;;;;;;20.55;2.75;;;3.90;99.90;;;-146.41;100.00;57768.22;4956497;28;20539;-67
2022/02/21 05:59:17;;;;;;;17.95;2.75;;;4.00;99.90;;;-146.41;100.00;57768.22;4953951;28;20134;-68
2022/02/21 06:01:44;;;;;;;24.65;3.28;;;3.90;99.90;;;-146.41;100.00;57768.22;4959933;28;20133;-67
2022/02/21 06:04:11;;;;;;;14.85;2.35;;;4.00;99.90;;;-146.41;100.00;57768.22;4955353;28;20099;-67
2022/02/21 06:06:39;;;;;;;23.48;3.75;;;4.00;99.90;;;-146.41;100.00;57768.22;4952743;28;20051;-68
2022/02/21 06:09:06;;;;;;;20.45;2.60;;;3.90;99.90;;;-146.41;100.00;57768.22;4948392;28;20047;-68
2022/02/21 06:11:33;;;;;;;20.15;2.83;;;3.90;99.90;;;-146.41;100.00;57768.22;4951835;28;20138;-67
2022/02/21 06:14:01;;;;;;;26.50;2.97;;;3.90;99.90;;;-146.41;100.00;57768.22;4953225;28;20082;-68
2022/02/21 06:16:27;;;;;;;33.10;3.85;;;3.90;99.90;;;-146.41;100.00;57768.22;4940928;28;20047;-68
2022/02/21 06:18:54;;;;;;;21.10;2.45;;;3.90;99.90;;;-146.41;100.00;57768.22;4959446;28;20047;-68
2022/02/21 06:21:22;;;;;;;24.35;3.25;;;3.90;99.90;;;-146.41;100.00;57768.22;4955454;28;20153;-69
2022/02/21 06:23:48;;;;;;;22.75;3.45;;;3.90;99.90;;;-146.41;100.00;57768.22;4959696;28;20133;-68
2022/02/21 06:26:17;;;;;;;20.08;3.58;;;3.90;99.90;;;-146.41;100.00;57768.22;4946243;28;20069;-68
2022/02/21 06:28:44;;;;;;;26.33;3.22;;;4.00;99.90;;;-146.41;100.00;57768.22;4943242;28;20500;-68
2022/02/21 06:31:11;;;;;;;25.70;3.65;;;4.00;99.90;;;-146.41;100.00;57768.22;4959568;28;20459;-68
2022/02/21 06:33:39;;;;;;;23.48;3.92;;;3.90;99.90;;;-146.41;100.00;57768.22;4954515;28;20089;-68
2022/02/21 06:36:06;;;;;;;31.35;3.92;;;4.00;99.90;;;-146.41;100.00;57768.22;4941998;28;20138;-68
2022/02/21 06:38:33;;;;;;;31.23;3.90;;;4.00;99.90;;;-146.41;100.00;57768.22;4955846;28;20106;-68
2022/02/21 06:41:00;;;;;;;18.77;2.10;;;4.00;99.90;;;-146.41;100.00;57768.22;4953235;28;20065;-67
2022/02/21 06:43:27;;;;;;;23.77;2.80;;;4.10;99.90;;;-146.41;100.00;57768.22;4955363;28;20214;-68
2022/02/21 06:45:54;;;;;;;8.95;2.10;;;4.20;99.90;;;-146.41;100.00;57768.22;4958121;28;20413;-67
2022/02/21 06:48:22;;;;;;;20.15;2.22;;;4.10;99.90;;;-146.41;100.00;57768.22;4942641;28;20142;-68
2022/02/21 06:50:49;;;;;;;16.25;1.88;;;3.90;99.90;;;-146.41;100.00;57768.22;4960866;28;20121;-68
2022/02/21 06:53:16;;;;;;;15.57;1.35;;;3.50;99.90;;;-146.41;100.00;57768.22;4960026;28;20138;-68
2022/02/21 06:55:43;;;;;;;18.67;2.15;;;3.30;99.90;;;-146.41;100.00;57768.22;4960671;28;20545;-68
2022/02/21 06:58:11;;;;;;;12.23;1.83;;;3.10;99.90;;;-146.41;100.00;57768.22;4959447;28;20138;-68
2022/02/21 07:00:38;;;;;;;14.02;2.15;;;3.00;99.90;;;-146.41;100.00;57768.22;4956877;28;20142;-68
2022/02/21 07:03:05;;;;;;;14.80;2.55;;;3.00;99.90;;;-146.41;100.00;57768.22;4957893;28;20050;-68
2022/02/21 07:05:32;;;;;;;20.55;2.35;;;3.00;99.90;;;-146.41;100.00;57768.22;4958510;28;20111;-68
2022/02/21 07:07:59;;;;;;;14.15;1.70;;;3.00;99.90;;;-146.41;100.00;57768.22;4961900;28;20069;-68
2022/02/21 07:10:26;;;;;;;17.60;2.40;;;3.10;99.90;;;-146.41;100.00;57768.22;4959744;28;20046;-68
2022/02/21 07:12:53;;;;;;;28.73;3.30;;;3.10;99.90;;;-146.41;100.00;57768.22;4962589;28;20178;-68
2022/02/21 07:15:23;;;;;;;19.45;3.08;;;3.20;99.90;;;-146.41;100.00;57768.22;4945088;28;20172;-68
2022/02/21 07:17:50;;;;;;;19.83;3.45;;;3.30;99.90;;;-146.41;100.00;57768.22;4958118;28;20043;-68
2022/02/21 07:20:17;;;;;;;24.73;3.75;;;3.40;99.90;;;-146.41;100.00;57768.22;4960859;28;20141;-68
2022/02/21 07:22:46;;;;;;;20.75;2.90;;;3.50;99.90;;;-146.41;100.00;57768.22;4958469;28;20047;-68
2022/02/21 07:25:16;;;;;;;16.65;3.28;;;3.50;99.90;;;-146.41;100.00;57768.22;4947710;28;20086;-68
2022/02/21 07:27:53;;;;;;;18.17;2.85;;;3.50;99.90;;;-146.41;100.00;57768.22;4959941;28;20087;-68
2022/02/21 07:30:23;;;;;;;24.83;2.63;;;3.40;99.90;;;-146.41;100.00;57768.22;4945793;28;20086;-68
2022/02/21 07:32:51;;;;;;;20.33;2.90;;;3.50;99.90;;;-146.41;100.00;57768.22;4942594;28;20051;-68
2022/02/21 07:35:19;;;;;;;25.88;3.35;;;3.60;99.90;;;-146.41;100.00;57768.22;4957440;28;20491;-68
2022/02/21 07:37:46;;;;;;;27.25;2.80;;;3.70;99.90;;;-146.41;100.00;57768.22;4957710;28;20082;-68
2022/02/21 07:40:16;;;;;;;24.40;2.58;;;3.80;99.90;;;-146.41;100.00;57768.22;4957861;28;20305;-68
2022/02/21 07:42:49;;;;;;;16.85;1.98;;;3.80;99.90;;;-146.41;100.00;57768.22;4960596;28;20444;-67
2022/02/21 07:45:19;;;;;;;19.05;2.05;;;3.80;99.90;;;-146.41;100.00;57768.22;4955600;28;20114;-68
2022/02/21 07:47:56;;;;;;;9.77;1.73;;;3.70;99.90;;;-146.41;100.00;57768.22;4959789;28;20074;-68
2022/02/21 07:50:27;;;;;;;8.88;1.20;;;3.40;99.90;;;-146.41;100.00;57768.22;4957469;28;20051;-67
2022/02/21 07:52:55;;;;;;;7.82;1.02;;;2.90;99.90;;;-146.41;100.00;57768.22;4928891;28;20409;-68
2022/02/21 07:55:25;;;;;;;3.55;0.55;;;2.20;99.90;;;-146.41;100.00;57768.22;4946288;28;20093;-69
2022/02/21 07:57:53;;;;;;;2.63;0.75;;;;;;;-146.41;100.00;57768.22;4960509;28;20602;-68
2022/02/21 08:00:20;;;;;;;4.55;0.80;;;;;;;-146.41;100.00;57768.22;4956961;28;20117;-69
2022/02/21 08:02:55;;;;;;;2.92;0.40;;;;;;;-146.41;100.00;57768.22;4955955;28;20118;-69
2022/02/21 08:05:25;;;;;;;5.40;0.65;;;;;;;-146.41;100.00;57768.22;4956577;28;20089;-69
2022/02/21 08:07:53;;;;;;;2.80;0.52;;;;;;;-146.41;100.00;57768.22;4959214;28;20420;-69
2022/02/21 08:10:20;;;;;;;3.65;0.60;;;;;;;-146.41;100.00;57768.22;4957644;28;20138;-69
2022/02/21 08:12:47;;;;;;;3.63;0.57;;;;;;;-146.41;100.00;57768.22;4959164;28;20087;-70
2022/02/21 08:15:15;;;;;;;5.97;0.82;;;;;;;-146.41;100.00;57768.22;4957982;28;20697;-69
2022/02/21 08:17:44;;;;;;;3.85;0.80;;;;;;;-146.41;100.00;57768.22;4957887;28;20086;-69
2022/02/21 08:20:13;;;;;;;1.73;0.50;;;;;;;-146.41;100.00;57768.22;4959608;28;20139;-69
2022/02/21 08:22:41;;;;;;;5.03;1.00;;;;;;;-146.41;100.00;57768.22;4922315;28;20047;-68
2022/02/21 08:25:10;;;;;;;3.72;0.70;;;;;;;-146.41;100.00;57768.22;4981336;28;20141;-68
2022/02/21 08:27:38;;;;;;;2.72;1.15;;;;;;;-146.41;100.00;57768.22;4976663;28;20451;-68
2022/02/21 08:30:08;;;;;;;6.57;0.98;;;;;;;-146.41;100.00;57768.22;4978000;28;20597;-68
2022/02/21 08:32:38;;;;;;;4.93;0.73;;;;;;;-146.41;100.00;57768.22;4966239;28;20062;-67
2022/02/21 08:35:06;;;;;;;4.20;0.60;;;;;;;-146.41;100.00;57768.22;4978228;28;20086;-67
2022/02/21 08:37:34;;;;;;;6.22;1.42;;;;;;;-146.41;100.00;57768.22;4977938;28;20148;-67
2022/02/21 08:40:02;;;;;;;5.82;0.80;;;;;;;-146.41;100.00;57768.22;4977800;28;20060;-68
2022/02/21 08:42:30;;;;;;;10.57;1.70;;;;;;;-146.41;100.00;57768.22;4979449;28;20160;-67
2022/02/21 08:44:59;;;;;;;6.05;1.38;;;;;;;-146.41;100.00;57768.22;4974272;28;20122;-68
2022/02/21 08:47:26;;;;;;;8.55;1.20;;;;;;;-146.41;100.00;57768.22;4977969;28;20046;-67
2022/02/21 08:49:54;;;;;;;12.60;1.27;;;;;;;-146.41;100.00;57768.22;4974725;28;20260;-67
2022/02/21 08:52:21;;;;;;;7.15;1.27;;;;;;;-146.41;100.00;57768.22;4977138;28;20046;-68
2022/02/21 08:54:48;;;;;;;5.93;1.45;;;;;;;-146.41;100.00;57768.22;4978764;28;20593;-67
2022/02/21 08:57:16;;;;;;;7.68;1.50;;;;;;;-146.41;100.00;57768.22;4976361;28;20403;-68
2022/02/21 08:59:43;;;;;;;5.40;0.80;;;;;;;-146.41;100.00;57768.22;4978371;28;20082;-68
2022/02/21 09:02:11;;;;;;;6.13;1.30;;;;;;;-146.41;100.00;57768.22;4975803;28;20413;-67
2022/02/21 09:04:59;;;;;;;9.55;1.20;;;;;;;-146.41;100.00;57768.22;4980203;28;20534;-67
2022/02/21 09:07:26;;;;;;;5.43;1.70;;;;;;;-146.41;100.00;57768.22;4974324;28;20141;-68
2022/02/21 09:09:54;;;;;;;5.82;1.10;;;;;;;-146.41;100.00;57768.22;4975320;28;20096;-68
2022/02/21 09:12:21;;;;;;;10.05;1.10;;;;;;;-146.41;100.00;57768.22;4976231;28;20138;-68
2022/02/21 09:14:50;;;;;;;5.25;1.13;;;;;;;-146.41;100.00;57768.22;4974586;28;20289;-68
2022/02/21 09:17:19;;;;;;;7.82;1.20;;;;;;;-146.41;100.00;57768.22;4975759;28;20047;-68
2022/02/21 09:19:49;;;;;;;11.95;1.48;;;;;;;-146.41;100.00;57768.22;4975416;28;20065;-67
2022/02/21 09:22:17;;;;;;;9.98;1.25;;;;;;;-146.41;100.00;57768.22;4976384;28;20054;-68
2022/02/21 09:24:44;;;;;;;11.38;1.30;;;;;;;-146.41;100.00;57768.22;4977751;28;20072;-68
2022/02/21 09:27:12;;;;;;;9.95;1.08;;;;;;;-146.41;100.00;57768.22;4978078;28;20145;-67
2022/02/21 09:29:39;;;;;;;7.35;0.90;;;;;;;-146.41;100.00;57768.22;4975798;28;20054;-68
2022/02/21 09:32:07;;;;;;;10.25;1.50;;;;;;;-146.41;100.00;57768.22;4978685;28;20304;-67
2022/02/21 09:34:34;;;;;;;11.02;1.55;;;;;;;-146.41;100.00;57768.22;4963375;28;20553;-67
2022/02/21 09:37:02;;;;;;;5.65;0.80;;;;;;;-146.41;100.00;57768.22;4976453;28;20562;-67
2022/02/21 09:39:29;;;;;;;9.88;1.48;;;;;;;-146.41;100.00;57768.22;4976690;28;20055;-67
2022/02/21 09:41:57;;;;;;;13.02;1.73;;;;;;;-146.41;100.00;57768.22;4973670;28;20046;-67
2022/02/21 09:44:25;;;;;;;11.93;1.65;;;;;;;-146.41;100.00;57768.22;4973862;28;20133;-67
2022/02/21 09:46:53;;;;;;;12.13;1.23;;;;;;;-146.41;100.00;57768.22;4977088;28;20499;-68
2022/02/21 09:49:21;;;;;;;12.15;1.33;;;;;;;-146.41;100.00;57768.22;4974978;28;20078;-67
2022/02/21 09:51:48;;;;;;;9.55;1.67;;;;;;;-146.41;100.00;57768.22;4975858;28;20144;-68
2022/02/21 09:54:16;;;;;;;9.80;1.00;;;;;;;-146.41;100.00;57768.22;4976105;28;20100;-67
2022/02/21 09:56:44;;;;;;;13.40;1.77;;;;;;;-146.41;100.00;57768.22;4976127;28;20054;-67
2022/02/21 09:59:11;;;;;;;20.35;2.72;;;;;;;-146.41;100.00;57768.22;4973881;28;20068;-67
2022/02/21 10:01:39;;;;;;;13.35;2.17;;;;;;;-146.41;100.00;57768.22;4975365;28;20054;-67
2022/02/21 10:04:11;;;;;;;10.05;1.50;;;;;;;-146.41;100.00;57768.22;4974938;28;20109;-67
2022/02/21 10:06:38;;;;;;;15.95;1.80;;;;;;;-146.41;100.00;57768.22;4975751;28;20553;-67
2022/02/21 10:09:10;;;;;;;9.90;2.03;;;;;;;-146.41;100.00;57768.22;4973501;28;20058;-68
2022/02/21 10:11:40;;;;;;;19.95;2.17;;;;;;;-146.41;100.00;57768.22;4975332;28;20423;-67
2022/02/21 10:14:29;;;;;;;12.50;1.70;;;;;;;-146.41;100.00;57768.22;4977264;28;20073;-67
2022/02/21 10:16:59;;;;;;;13.10;1.92;;;;;;;-146.41;100.00;57768.22;4976563;28;20051;-68
2022/02/21 10:19:38;;;;;;;15.13;2.60;;;;;;;-146.41;100.00;57768.22;4973899;28;20066;-67
2022/02/21 10:22:13;;;;;;;12.18;1.70;;;;;;;-146.41;100.00;57768.22;4975349;28;20198;-67
2022/02/21 10:24:44;;;;;;;11.93;1.60;;;;;;;-146.41;100.00;57768.22;4976282;28;20130;-67
2022/02/21 10:27:22;;;;;;;13.73;1.60;;;;;;;-146.41;100.00;57768.22;4964530;28;20514;-67
2022/02/21 10:30:00;;;;;;;14.20;2.33;;;;;;;-146.41;100.00;57768.22;4982620;28;20042;-68
2022/02/21 10:32:49;;;;;;;10.07;1.58;;;;;;;-146.41;100.00;57768.22;4979444;28;20057;-68
2022/02/21 10:35:30;;;;;;;17.27;2.17;;;;;;;-146.41;100.00;57768.22;4977216;28;20551;-68
2022/02/21 10:38:01;;;;;;;19.40;1.88;;;;;;;-146.41;100.00;57768.22;4981472;28;20399;-68
2022/02/21 10:40:37;;;;;;;13.43;1.73;;;;;;;-146.41;100.00;57768.22;4980407;28;20074;-68
2022/02/21 10:43:20;;;;;;;11.48;1.98;;;;;;;-146.41;100.00;57768.22;4976805;28;20078;-67
2022/02/21 10:45:48;;;;;;;8.90;1.25;;;;;;;-146.41;100.00;57768.22;4963102;28;20050;-68
2022/02/21 10:48:17;;;;;;;9.68;1.35;;;;;;;-146.41;100.00;57768.22;4964834;28;20049;-67